Time;durP1;ratioP1;P1;durP2;ratioP2;P2;SDS_P1;SDS_P2;PMS_P1;PMS_P2;Temp;Humidity;BMP_temperature;BMP_pressure;BME280_temperature;BME280_humidity;BME280_pressure;Samples;Min_cycle;Max_cycle;Signal;HPM_P1;HPM_P2
2023/04/03 00:00:54;;;;;;;3.97;1.70;;;;;;;;;;5064559;28;20491;-85
2023/04/03 00:03:22;;;;;;;3.28;1.67;;;;;;;;;;5076553;28;20056;-85
2023/04/03 00:05:50;;;;;;;6.30;1.83;;;;;;;;;;5060015;28;20098;-87
2023/04/03 00:08:17;;;;;;;6.28;1.35;;;;;;;;;;5065266;28;20054;-87
2023/04/03 00:10:44;;;;;;;5.30;1.48;;;;;;;;;;5063398;28;20139;-85
2023/04/03 00:13:11;;;;;;;4.72;1.52;;;;;;;;;;5061814;28;20305;-87
2023/04/03 00:15:39;;;;;;;2.35;1.33;;;;;;;;;;5064797;28;20049;-87
2023/04/03 00:18:07;;;;;;;6.50;1.50;;;;;;;;;;5063619;28;20123;-86
2023/04/03 00:20:34;;;;;;;2.83;1.23;;;;;;;;;;5063741;28;20047;-87
2023/04/03 00:23:02;;;;;;;2.00;1.40;;;;;;;;;;5063524;28;20045;-87
2023/04/03 00:25:29;;;;;;;2.95;1.50;;;;;;;;;;5062544;28;20087;-87
2023/04/03 00:27:56;;;;;;;8.57;1.65;;;;;;;;;;5062505;28;20055;-86
2023/04/03 00:30:24;;;;;;;4.97;1.73;;;;;;;;;;5061802;28;20084;-86
2023/04/03 00:32:52;;;;;;;6.25;1.60;;;;;;;;;;5079111;28;20055;-86
2023/04/03 00:35:21;;;;;;;5.20;1.33;;;;;;;;;;5060610;28;20485;-87
2023/04/03 00:37:49;;;;;;;6.20;1.50;;;;;;;;;;5061855;28;20044;-86
2023/04/03 00:40:16;;;;;;;4.85;1.40;;;;;;;;;;5078887;28;20044;-86
2023/04/03 00:42:44;;;;;;;4.28;1.38;;;;;;;;;;5078932;28;20049;-86
2023/04/03 00:45:11;;;;;;;5.63;1.60;;;;;;;;;;5059657;28;20127;-86
2023/04/03 00:47:40;;;;;;;2.72;1.40;;;;;;;;;;5060140;28;20044;-86
2023/04/03 00:50:07;;;;;;;5.22;1.70;;;;;;;;;;5059379;28;20051;-86
2023/04/03 00:52:35;;;;;;;6.35;1.65;;;;;;;;;;5060367;28;20135;-86
2023/04/03 00:55:04;;;;;;;4.05;1.45;;;;;;;;;;5078061;28;20063;-87
2023/04/03 00:57:32;;;;;;;4.75;2.15;;;;;;;;;;5058957;28;20040;-86
2023/04/03 01:00:02;;;;;;;4.38;1.65;;;;;;;;;;5059491;28;20040;-86
2023/04/03 01:02:29;;;;;;;4.18;1.48;;;;;;;;;;5059480;28;20131;-87
2023/04/03 01:04:57;;;;;;;4.82;1.70;;;;;;;;;;5058711;28;20049;-86
2023/04/03 01:07:26;;;;;;;3.90;1.58;;;;;;;;;;5059060;28;20078;-86
2023/04/03 01:09:56;;;;;;;14.95;1.77;;;;;;;;;;5059409;28;20059;-86
2023/04/03 01:12:25;;;;;;;4.70;1.40;;;;;;;;;;5058410;28;20370;-86
2023/04/03 01:14:57;;;;;;;2.10;1.23;;;;;;;;;;5059136;28;20482;-86
2023/04/03 01:17:38;;;;;;;4.00;1.45;;;;;;;;;;5076975;28;20053;-86
2023/04/03 01:20:24;;;;;;;5.25;1.58;;;;;;;;;;5058255;28;20071;-86
2023/04/03 01:23:05;;;;;;;3.88;1.70;;;;;;;;;;5058172;28;20055;-86
2023/04/03 01:25:32;;;;;;;6.03;1.92;;;;;;;;;;5058071;28;20052;-87
2023/04/03 01:28:00;;;;;;;3.47;1.60;;;;;;;;;;5058766;28;20048;-86
2023/04/03 01:30:32;;;;;;;5.05;1.60;;;;;;;;;;5058150;28;20091;-86
2023/04/03 01:32:59;;;;;;;5.00;1.45;;;;;;;;;;5057857;28;20046;-86
2023/04/03 01:35:26;;;;;;;6.97;1.88;;;;;;;;;;5074576;28;20051;-86
2023/04/03 01:37:54;;;;;;;3.75;1.52;;;;;;;;;;5073505;28;20052;-86
2023/04/03 01:40:21;;;;;;;2.90;1.38;;;;;;;;;;5073695;28;20135;-86
2023/04/03 01:42:48;;;;;;;4.05;1.98;;;;;;;;;;5055840;28;20090;-86
2023/04/03 01:45:15;;;;;;;4.93;1.73;;;;;;;;;;5061220;28;20131;-87
2023/04/03 01:47:42;;;;;;;9.70;2.00;;;;;;;;;;5063073;28;20050;-87
2023/04/03 01:50:10;;;;;;;4.68;2.28;;;;;;;;;;5080260;28;20044;-86
2023/04/03 01:52:37;;;;;;;6.25;1.73;;;;;;;;;;5061664;28;20080;-87
2023/04/03 01:55:04;;;;;;;9.15;2.70;;;;;;;;;;5062571;28;20491;-87
2023/04/03 01:57:31;;;;;;;4.47;1.88;;;;;;;;;;5061478;28;20068;-86
2023/04/03 01:59:59;;;;;;;5.18;1.90;;;;;;;;;;5061320;28;20048;-86
2023/04/03 02:02:27;;;;;;;6.28;2.03;;;;;;;;;;5060915;28;20083;-87
2023/04/03 02:04:54;;;;;;;3.95;1.50;;;;;;;;;;5079388;28;20418;-86
2023/04/03 02:07:22;;;;;;;5.63;2.00;;;;;;;;;;5064606;23;20055;-81
2023/04/03 02:09:49;;;;;;;5.28;2.08;;;;;;;;;;5052987;28;20135;-82
2023/04/03 02:12:17;;;;;;;7.07;2.03;;;;;;;;;;5034755;28;20052;-81
2023/04/03 02:14:44;;;;;;;6.75;1.92;;;;;;;;;;5034727;28;20052;-80
2023/04/03 02:17:11;;;;;;;3.80;1.90;;;;;;;;;;5052376;28;20059;-81
2023/04/03 02:19:38;;;;;;;8.68;1.90;;;;;;;;;;5034651;28;20044;-81
2023/04/03 02:22:06;;;;;;;5.78;2.28;;;;;;;;;;5052352;28;20400;-82
2023/04/03 02:24:33;;;;;;;6.78;2.17;;;;;;;;;;5052446;28;20068;-82
2023/04/03 02:27:00;;;;;;;6.60;2.08;;;;;;;;;;5034768;28;20095;-81
2023/04/03 02:29:27;;;;;;;5.05;2.50;;;;;;;;;;5034503;28;20056;-82
2023/04/03 02:31:55;;;;;;;4.07;2.05;;;;;;;;;;5034775;28;20056;-81
2023/04/03 02:34:22;;;;;;;5.07;2.00;;;;;;;;;;5034794;28;20049;-81
2023/04/03 02:36:49;;;;;;;4.72;2.20;;;;;;;;;;5034459;28;20051;-80
2023/04/03 02:39:16;;;;;;;5.47;2.17;;;;;;;;;;5052225;28;20045;-81
2023/04/03 02:41:43;;;;;;;7.90;2.45;;;;;;;;;;5052167;28;20048;-82
2023/04/03 02:44:11;;;;;;;6.13;2.67;;;;;;;;;;5034476;28;20575;-81
2023/04/03 02:46:38;;;;;;;8.80;2.20;;;;;;;;;;5034505;28;20479;-81
2023/04/03 02:49:06;;;;;;;6.15;2.65;;;;;;;;;;5034757;28;20052;-81
2023/04/03 02:51:33;;;;;;;7.68;2.95;;;;;;;;;;5051980;28;20057;-80
2023/04/03 02:54:00;;;;;;;6.78;2.65;;;;;;;;;;5034833;28;20052;-81
2023/04/03 02:56:28;;;;;;;6.97;2.60;;;;;;;;;;5051729;28;20135;-81
2023/04/03 02:58:55;;;;;;;3.10;2.53;;;;;;;;;;5051963;28;20496;-81
2023/04/03 03:01:22;;;;;;;6.00;2.53;;;;;;;;;;5034401;28;20053;-81
2023/04/03 03:03:49;;;;;;;8.52;2.83;;;;;;;;;;5034633;28;20561;-80
2023/04/03 03:06:18;;;;;;;8.35;2.58;;;;;;;;;;5034214;28;20057;-81
2023/04/03 03:08:45;;;;;;;3.58;2.40;;;;;;;;;;5052232;28;20144;-80
2023/04/03 03:11:12;;;;;;;5.50;2.72;;;;;;;;;;5034202;28;20045;-80
2023/04/03 03:13:39;;;;;;;6.05;3.15;;;;;;;;;;5036273;28;20044;-82
2023/04/03 03:16:06;;;;;;;7.25;2.83;;;;;;;;;;5037900;28;20045;-79
2023/04/03 03:18:35;;;;;;;11.65;2.78;;;;;;;;;;5038128;28;20049;-81
2023/04/03 03:21:02;;;;;;;8.40;2.50;;;;;;;;;;5056238;28;20486;-81
2023/04/03 03:23:31;;;;;;;5.55;2.80;;;;;;;;;;5037906;28;20502;-81
2023/04/03 03:26:00;;;;;;;9.18;2.95;;;;;;;;;;5037827;28;20048;-81
2023/04/03 03:28:27;;;;;;;6.35;2.38;;;;;;;;;;5055744;28;20076;-81
2023/04/03 03:30:54;;;;;;;4.38;2.50;;;;;;;;;;5037811;28;20059;-81
2023/04/03 03:33:21;;;;;;;5.97;2.15;;;;;;;;;;5037848;28;20045;-81
2023/04/03 03:35:49;;;;;;;6.20;2.58;;;;;;;;;;5037642;28;20511;-81
2023/04/03 03:38:16;;;;;;;5.22;2.38;;;;;;;;;;5037731;28;20056;-80
2023/04/03 03:40:44;;;;;;;5.82;2.50;;;;;;;;;;5037753;28;20483;-80
2023/04/03 03:43:11;;;;;;;5.82;2.92;;;;;;;;;;5037601;28;20041;-81
2023/04/03 03:45:38;;;;;;;8.75;3.10;;;;;;;;;;5055055;28;20045;-81
2023/04/03 03:48:05;;;;;;;7.65;2.72;;;;;;;;;;5055202;28;20044;-82
2023/04/03 03:50:33;;;;;;;6.95;3.00;;;;;;;;;;5037371;28;20095;-81
2023/04/03 03:53:00;;;;;;;7.72;3.20;;;;;;;;;;5054961;28;20045;-81
2023/04/03 03:55:27;;;;;;;6.00;2.17;;;;;;;;;;5054854;28;20430;-81
2023/04/03 03:57:54;;;;;;;3.97;2.35;;;;;;;;;;5055235;28;20684;-82
2023/04/03 04:00:21;;;;;;;11.68;4.72;;;;;;;;;;5054756;28;20049;-81
2023/04/03 04:02:49;;;;;;;6.85;3.40;;;;;;;;;;5054829;28;20059;-81
2023/04/03 04:05:16;;;;;;;7.07;2.97;;;;;;;;;;5036876;28;20384;-80
2023/04/03 04:07:43;;;;;;;15.63;6.50;;;;;;;;;;5056097;28;20106;-81
2023/04/03 04:10:10;;;;;;;10.43;4.95;;;;;;;;;;5039369;28;20087;-81
2023/04/03 04:12:38;;;;;;;5.28;3.53;;;;;;;;;;5038790;28;20561;-82
2023/04/03 04:15:05;;;;;;;10.48;4.47;;;;;;;;;;5038960;28;20582;-82
2023/04/03 04:17:34;;;;;;;15.98;10.18;;;;;;;;;;5038729;28;20059;-83
2023/04/03 04:20:02;;;;;;;15.00;7.10;;;;;;;;;;5038264;28;20049;-81
2023/04/03 04:22:29;;;;;;;9.43;4.85;;;;;;;;;;5056251;28;20052;-82
2023/04/03 04:24:57;;;;;;;9.25;5.25;;;;;;;;;;5037758;28;20064;-82
2023/04/03 04:27:24;;;;;;;7.28;5.22;;;;;;;;;;5038332;28;20055;-82
2023/04/03 04:29:51;;;;;;;7.88;3.95;;;;;;;;;;5055756;28;20135;-82
2023/04/03 04:32:18;;;;;;;10.45;6.03;;;;;;;;;;5055775;28;20132;-81
2023/04/03 04:34:45;;;;;;;9.20;3.92;;;;;;;;;;5037532;28;20053;-81
2023/04/03 04:37:12;;;;;;;9.48;3.88;;;;;;;;;;5037759;28;20053;-82
2023/04/03 04:39:40;;;;;;;9.95;4.10;;;;;;;;;;5055115;28;20098;-82
2023/04/03 04:42:12;;;;;;;8.02;3.75;;;;;;;;;;5055266;28;20044;-81
2023/04/03 04:44:42;;;;;;;9.98;3.05;;;;;;;;;;5054704;28;20045;-81
2023/04/03 04:47:10;;;;;;;9.85;3.63;;;;;;;;;;5036822;28;20135;-81
2023/04/03 04:49:37;;;;;;;7.18;2.95;;;;;;;;;;5037061;28;20048;-81
2023/04/03 04:52:04;;;;;;;12.35;3.67;;;;;;;;;;5054729;28;20491;-81
2023/04/03 04:54:32;;;;;;;16.55;4.40;;;;;;;;;;5036894;28;20606;-82
2023/04/03 04:56:59;;;;;;;5.70;3.60;;;;;;;;;;5036824;28;20049;-82
2023/04/03 04:59:26;;;;;;;9.68;4.28;;;;;;;;;;5036311;28;20053;-81
2023/04/03 05:01:54;;;;;;;8.40;4.95;;;;;;;;;;5036871;28;20051;-81
2023/04/03 05:04:21;;;;;;;5.18;4.18;;;;;;;;;;5054162;28;20072;-81
2023/04/03 05:06:49;;;;;;;6.30;3.90;;;;;;;;;;5036441;28;20136;-80
2023/04/03 05:09:16;;;;;;;8.77;3.63;;;;;;;;;;5036285;28;20045;-82
2023/04/03 05:11:43;;;;;;;9.45;4.20;;;;;;;;;;5036444;28;20053;-81
2023/04/03 05:14:10;;;;;;;6.60;3.58;;;;;;;;;;5053340;28;20053;-81
2023/04/03 05:16:37;;;;;;;9.88;4.05;;;;;;;;;;5053547;28;20052;-81
2023/04/03 05:19:05;;;;;;;12.75;3.75;;;;;;;;;;5053736;28;20055;-80
2023/04/03 05:21:32;;;;;;;12.10;4.90;;;;;;;;;;5053376;28;20049;-81
2023/04/03 05:24:02;;;;;;;9.88;4.57;;;;;;;;;;5053533;28;20079;-82
2023/04/03 05:26:30;;;;;;;7.65;4.30;;;;;;;;;;5035409;28;20099;-81
2023/04/03 05:28:57;;;;;;;8.98;4.20;;;;;;;;;;5035724;28;20041;-81
2023/04/03 05:31:24;;;;;;;8.38;4.20;;;;;;;;;;5035729;28;20053;-82
2023/04/03 05:33:52;;;;;;;8.60;4.90;;;;;;;;;;5053187;28;20041;-85
2023/04/03 05:36:19;;;;;;;9.02;4.78;;;;;;;;;;5052343;28;20041;-81
2023/04/03 05:38:47;;;;;;;7.57;5.05;;;;;;;;;;5053150;28;20049;-81
2023/04/03 05:41:14;;;;;;;10.38;4.43;;;;;;;;;;5035209;28;20055;-80
2023/04/03 05:43:42;;;;;;;9.40;4.53;;;;;;;;;;5053372;28;20510;-81
2023/04/03 05:46:10;;;;;;;13.40;7.43;;;;;;;;;;5035376;28;20136;-82
2023/04/03 05:48:38;;;;;;;8.93;4.32;;;;;;;;;;5053295;28;20041;-81
2023/04/03 05:51:06;;;;;;;8.55;4.65;;;;;;;;;;5035499;28;20147;-81
2023/04/03 05:53:37;;;;;;;8.45;5.18;;;;;;;;;;5052966;28;20060;-82
2023/04/03 05:56:04;;;;;;;7.30;4.70;;;;;;;;;;5052961;28;20131;-81
2023/04/03 05:58:31;;;;;;;10.45;4.25;;;;;;;;;;5035201;28;20056;-81
2023/04/03 06:00:58;;;;;;;8.52;5.60;;;;;;;;;;5035446;28;20077;-83
2023/04/03 06:03:25;;;;;;;11.25;4.63;;;;;;;;;;5052911;28;20067;-81
2023/04/03 06:05:53;;;;;;;11.70;3.83;;;;;;;;;;5034965;28;20045;-80
2023/04/03 06:08:20;;;;;;;7.13;4.32;;;;;;;;;;5032561;28;20055;-81
2023/04/03 06:10:48;;;;;;;5.13;4.43;;;;;;;;;;5031557;28;20456;-80
2023/04/03 06:13:15;;;;;;;9.40;4.50;;;;;;;;;;5031643;28;20103;-81
2023/04/03 06:15:42;;;;;;;10.75;4.22;;;;;;;;;;5037175;28;20045;-82
2023/04/03 06:18:10;;;;;;;7.57;4.35;;;;;;;;;;5037145;28;20135;-82
2023/04/03 06:20:37;;;;;;;7.03;4.15;;;;;;;;;;5036403;28;20053;-81
2023/04/03 06:23:05;;;;;;;7.13;3.70;;;;;;;;;;5035800;28;20519;-82
2023/04/03 06:25:34;;;;;;;6.18;3.97;;;;;;;;;;5036625;28;20052;-83
2023/04/03 06:28:01;;;;;;;7.95;3.70;;;;;;;;;;5036180;28;20048;-83
2023/04/03 06:30:28;;;;;;;6.18;3.25;;;;;;;;;;5036072;28;20049;-83
2023/04/03 06:32:56;;;;;;;8.93;3.30;;;;;;;;;;5035587;28;20053;-82
2023/04/03 06:35:23;;;;;;;7.03;2.95;;;;;;;;;;5053066;28;20077;-82
2023/04/03 06:37:50;;;;;;;8.13;3.25;;;;;;;;;;5053538;28;20075;-83
2023/04/03 06:40:21;;;;;;;4.85;2.78;;;;;;;;;;5053172;28;20044;-81
2023/04/03 06:42:48;;;;;;;5.95;2.72;;;;;;;;;;5053211;28;20091;-82
2023/04/03 06:45:15;;;;;;;5.25;2.58;;;;;;;;;;5034911;28;20558;-81
2023/04/03 06:47:43;;;;;;;5.32;2.90;;;;;;;;;;5055012;28;20080;-81
2023/04/03 06:50:11;;;;;;;7.55;3.25;;;;;;;;;;5039622;28;20045;-81
2023/04/03 06:52:39;;;;;;;2.58;2.20;;;;;;;;;;5039660;28;20103;-82
2023/04/03 06:55:08;;;;;;;6.22;2.70;;;;;;;;;;5039424;28;20049;-81
2023/04/03 06:57:35;;;;;;;6.50;3.00;;;;;;;;;;5057588;28;20049;-82
2023/04/03 07:00:04;;;;;;;6.72;2.58;;;;;;;;;;5067647;28;20079;-81
2023/04/03 07:02:31;;;;;;;4.22;2.78;;;;;;;;;;5062513;28;20083;-82
2023/04/03 07:04:58;;;;;;;3.72;2.53;;;;;;;;;;5062581;28;20442;-81
2023/04/03 07:07:26;;;;;;;4.35;2.67;;;;;;;;;;5075885;28;20064;-81
2023/04/03 07:09:53;;;;;;;6.30;2.25;;;;;;;;;;5065202;28;20049;-82
2023/04/03 07:12:20;;;;;;;5.93;2.35;;;;;;;;;;5065022;28;20063;-82
2023/04/03 07:14:47;;;;;;;8.15;2.60;;;;;;;;;;5064330;28;20135;-82
2023/04/03 07:17:15;;;;;;;6.97;2.47;;;;;;;;;;5081605;28;20055;-80
2023/04/03 07:19:42;;;;;;;6.82;2.97;;;;;;;;;;5078089;28;20044;-82
2023/04/03 07:22:10;;;;;;;6.70;3.00;;;;;;;;;;5077010;28;20044;-81
2023/04/03 07:24:38;;;;;;;8.07;3.17;;;;;;;;;;5076227;28;20131;-82
2023/04/03 07:27:05;;;;;;;7.57;2.67;;;;;;;;;;5076140;28;20044;-82
2023/04/03 07:29:32;;;;;;;6.13;2.85;;;;;;;;;;5058456;28;20051;-81
2023/04/03 07:31:59;;;;;;;7.57;3.42;;;;;;;;;;5058207;28;20055;-81
2023/04/03 07:34:27;;;;;;;7.00;2.85;;;;;;;;;;5057609;28;20045;-82
2023/04/03 07:36:54;;;;;;;5.75;3.08;;;;;;;;;;5075901;28;20456;-81
2023/04/03 07:39:21;;;;;;;4.63;2.95;;;;;;;;;;5075427;28;20048;-81
2023/04/03 07:41:49;;;;;;;4.90;3.25;;;;;;;;;;5057766;28;20475;-81
2023/04/03 07:44:16;;;;;;;5.40;2.78;;;;;;;;;;5058094;28;20060;-82
2023/04/03 07:46:43;;;;;;;6.63;2.67;;;;;;;;;;5057872;28;20059;-80
2023/04/03 07:49:11;;;;;;;4.22;2.58;;;;;;;;;;5050968;28;20131;-81
2023/04/03 07:51:38;;;;;;;4.40;2.60;;;;;;;;;;5055366;28;20041;-82
2023/04/03 07:54:05;;;;;;;4.13;2.58;;;;;;;;;;5044526;28;20041;-81
2023/04/03 07:56:33;;;;;;;3.70;2.40;;;;;;;;;;5057636;28;20123;-81
2023/04/03 07:59:00;;;;;;;4.95;2.58;;;;;;;;;;5074571;28;20048;-81
2023/04/03 08:01:27;;;;;;;5.63;2.50;;;;;;;;;;5056109;28;20544;-81
2023/04/03 08:03:55;;;;;;;3.92;2.47;;;;;;;;;;5046275;28;20036;-82
2023/04/03 08:06:22;;;;;;;5.65;2.22;;;;;;;;;;5057158;28;20056;-81
2023/04/03 08:09:08;;;;;;;6.32;2.72;;;;;;;;;;5060165;28;20048;-81
2023/04/03 08:11:36;;;;;;;4.85;2.20;;;;;;;;;;5059076;28;20570;-82
2023/04/03 08:14:03;;;;;;;7.55;2.30;;;;;;;;;;5054963;28;20139;-81
2023/04/03 08:16:30;;;;;;;4.70;2.22;;;;;;;;;;5054713;28;20052;-81
2023/04/03 08:18:58;;;;;;;5.38;2.10;;;;;;;;;;5037003;28;20052;-82
2023/04/03 08:21:25;;;;;;;5.20;1.90;;;;;;;;;;5054599;28;20060;-82
2023/04/03 08:23:53;;;;;;;5.57;2.10;;;;;;;;;;5054490;28;20077;-81
2023/04/03 08:26:21;;;;;;;4.85;1.90;;;;;;;;;;5036605;28;20071;-81
2023/04/03 08:28:49;;;;;;;4.78;2.00;;;;;;;;;;5036967;28;20486;-81
2023/04/03 08:31:18;;;;;;;5.53;1.75;;;;;;;;;;5054433;28;20064;-82
2023/04/03 08:33:46;;;;;;;6.35;1.92;;;;;;;;;;5037141;28;20053;-82
2023/04/03 08:36:18;;;;;;;4.68;1.60;;;;;;;;;;5036416;28;20059;-81
2023/04/03 08:38:45;;;;;;;2.13;1.60;;;;;;;;;;5054410;28;20059;-81
2023/04/03 08:41:12;;;;;;;4.97;1.85;;;;;;;;;;5054209;28;20049;-82
2023/04/03 08:43:49;;;;;;;8.05;1.65;;;;;;;;;;5054344;28;20045;-83
2023/04/03 08:46:17;;;;;;;3.42;1.90;;;;;;;;;;5054138;28;20484;-80
2023/04/03 08:48:45;;;;;;;5.72;1.67;;;;;;;;;;5054484;28;20053;-82
2023/04/03 08:51:17;;;;;;;5.90;1.63;;;;;;;;;;5036728;28;20085;-82
2023/04/03 08:53:56;;;;;;;4.30;1.65;;;;;;;;;;5036428;28;20084;-82
2023/04/03 08:56:25;;;;;;;3.78;1.55;;;;;;;;;;5054159;28;20515;-82
2023/04/03 08:59:00;;;;;;;2.95;1.85;;;;;;;;;;5036478;28;20049;-81
2023/04/03 09:01:38;;;;;;;4.15;1.45;;;;;;;;;;5036243;28;20266;-81
2023/04/03 09:04:13;;;;;;;2.03;1.27;;;;;;;;;;5036389;28;20054;-81
2023/04/03 09:06:41;;;;;;;3.47;1.60;;;;;;;;;;5036276;28;20056;-84
2023/04/03 09:09:14;;;;;;;6.80;2.05;;;;;;;;;;5036547;28;20048;-82
2023/04/03 09:12:01;;;;;;;4.45;1.52;;;;;;;;;;5035403;28;20056;-80
2023/04/03 09:14:35;;;;;;;4.07;1.00;;;;;;;;;;5036290;28;20056;-82
2023/04/03 09:17:12;;;;;;;4.65;1.55;;;;;;;;;;5054696;28;20060;-82
2023/04/03 09:19:49;;;;;;;4.40;1.23;;;;;;;;;;5038616;28;20128;-82
2023/04/03 09:22:22;;;;;;;3.75;1.20;;;;;;;;;;5055419;28;20059;-82
2023/04/03 09:24:58;;;;;;;6.30;1.20;;;;;;;;;;5037833;28;20045;-84
2023/04/03 09:27:25;;;;;;;11.68;1.33;;;;;;;;;;5037457;28;20144;-83
2023/04/03 09:29:54;;;;;;;4.20;1.20;;;;;;;;;;5037343;28;20052;-83
2023/04/03 09:32:27;;;;;;;5.30;0.90;;;;;;;;;;5036901;28;20080;-82
2023/04/03 09:34:56;;;;;;;13.77;5.53;;;;;;;;;;5036616;28;20049;-81
2023/04/03 09:37:36;;;;;;;4.40;1.85;;;;;;;;;;5054064;28;20478;-84
2023/04/03 09:40:06;;;;;;;14.02;1.30;;;;;;;;;;5036853;28;20045;-83
2023/04/03 09:42:33;;;;;;;2.35;1.27;;;;;;;;;;5053759;28;20044;-82
2023/04/03 09:45:01;;;;;;;1.73;1.35;;;;;;;;;;5035514;28;20128;-82
2023/04/03 09:47:33;;;;;;;2.78;1.08;;;;;;;;;;5036015;28;20049;-82
2023/04/03 09:50:13;;;;;;;4.47;1.33;;;;;;;;;;5035480;28;20132;-81
2023/04/03 09:52:42;;;;;;;3.25;1.80;;;;;;;;;;5035216;28;20128;-83
2023/04/03 09:55:20;;;;;;;22.38;12.05;;;;;;;;;;5035057;28;20048;-81
2023/04/03 09:57:48;;;;;;;5.43;2.30;;;;;;;;;;5052886;28;20041;-82
2023/04/03 10:00:24;;;;;;;2.10;1.10;;;;;;;;;;5035407;28;20077;-82
2023/04/03 10:02:52;;;;;;;4.75;2.17;;;;;;;;;;5035220;28;20083;-82
2023/04/03 10:05:37;;;;;;;4.00;1.75;;;;;;;;;;5034947;28;20052;-84
2023/04/03 10:08:13;;;;;;;2.20;1.02;;;;;;;;;;5034780;28;20077;-81
2023/04/03 10:10:42;;;;;;;2.97;0.80;;;;;;;;;;5035140;28;20496;-82
2023/04/03 10:13:13;;;;;;;5.65;1.23;;;;;;;;;;5052509;28;20499;-81
2023/04/03 10:16:01;;;;;;;1.25;0.75;;;;;;;;;;5035792;28;20048;-82
2023/04/03 10:18:29;;;;;;;1.17;1.00;;;;;;;;;;5034712;28;20056;-82
2023/04/03 10:21:00;;;;;;;2.70;1.05;;;;;;;;;;5034960;28;20053;-82
2023/04/03 10:23:43;;;;;;;3.05;0.93;;;;;;;;;;5034563;28;20151;-83
2023/04/03 10:26:24;;;;;;;3.05;1.05;;;;;;;;;;5034632;28;20416;-83
2023/04/03 10:28:51;;;;;;;3.00;1.33;;;;;;;;;;5052335;28;20127;-82
2023/04/03 10:31:32;;;;;;;5.40;1.20;;;;;;;;;;5052741;28;20083;-82
2023/04/03 10:34:02;;;;;;;1.20;0.77;;;;;;;;;;5036703;28;20045;-84
2023/04/03 10:36:46;;;;;;;2.15;0.93;;;;;;;;;;5034654;28;20136;-83
2023/04/03 10:39:19;;;;;;;2.17;0.95;;;;;;;;;;5052409;28;20049;-81
2023/04/03 10:41:46;;;;;;;4.75;0.80;;;;;;;;;;5052519;28;20156;-82
2023/04/03 10:44:16;;;;;;;3.78;0.88;;;;;;;;;;5052335;28;20496;-82
2023/04/03 10:46:47;;;;;;;3.08;0.90;;;;;;;;;;5034563;28;20079;-83
2023/04/03 10:49:36;;;;;;;3.75;0.80;;;;;;;;;;5052299;28;20049;-83
2023/04/03 10:52:06;;;;;;;10.18;1.48;;;;;;;;;;5052381;28;20049;-83
2023/04/03 10:54:39;;;;;;;2.00;0.60;;;;;;;;;;5052991;28;20141;-83
2023/04/03 10:57:10;;;;;;;2.30;1.17;;;;;;;;;;5034646;28;20060;-83
2023/04/03 10:59:40;;;;;;;;;;;;;;;;;;5035504;28;20071;-85
2023/04/03 11:02:27;;;;;;;5.75;1.63;;;;;;;;;;5052019;28;19927;-82
2023/04/03 11:05:04;;;;;;;2.50;0.70;;;;;;;;;;5035251;28;20419;-82
2023/04/03 11:07:37;;;;;;;2.42;0.73;;;;;;;;;;5034444;28;20147;-82
2023/04/03 11:10:12;;;;;;;2.00;0.90;;;;;;;;;;5034443;28;20052;-84
2023/04/03 11:12:43;;;;;;;5.00;0.80;;;;;;;;;;5038060;28;20053;-87
2023/04/03 11:15:21;;;;;;;1.63;0.93;;;;;;;;;;5054702;28;20052;-83
2023/04/03 11:17:55;;;;;;;1.70;1.20;;;;;;;;;;5055914;28;20079;-82
2023/04/03 11:20:27;;;;;;;1.85;1.40;;;;;;;;;;5038117;28;20095;-83
2023/04/03 11:22:59;;;;;;;2.50;0.97;;;;;;;;;;5037964;28;20140;-83
2023/04/03 11:25:26;;;;;;;4.20;2.35;;;;;;;;;;5037126;28;20055;-82
2023/04/03 11:27:53;;;;;;;2.83;0.80;;;;;;;;;;5054829;28;20051;-83
2023/04/03 11:30:24;;;;;;;19.73;10.50;;;;;;;;;;5055541;28;20084;-84
2023/04/03 11:32:51;;;;;;;20.98;10.40;;;;;;;;;;5037724;28;20041;-82
2023/04/03 11:35:19;;;;;;;41.30;23.45;;;;;;;;;;5038246;28;20136;-82
2023/04/03 11:37:49;;;;;;;47.08;25.08;;;;;;;;;;5038099;28;20143;-82
2023/04/03 11:40:17;;;;;;;13.48;7.70;;;;;;;;;;5037996;28;20067;-82
2023/04/03 11:42:49;;;;;;;3.55;2.13;;;;;;;;;;5055967;28;20132;-83
2023/04/03 11:45:29;;;;;;;3.30;2.70;;;;;;;;;;5055597;28;20076;-83
2023/04/03 11:47:58;;;;;;;6.30;3.88;;;;;;;;;;5055499;28;20537;-82
2023/04/03 11:50:40;;;;;;;1.55;1.45;;;;;;;;;;5038554;28;20112;-85
2023/04/03 11:53:07;;;;;;;5.55;2.55;;;;;;;;;;5038137;28;20119;-84
2023/04/03 11:55:35;;;;;;;2.38;1.60;;;;;;;;;;5038051;28;20111;-82
2023/04/03 11:58:14;;;;;;;2.25;0.95;;;;;;;;;;5038362;28;20404;-81
2023/04/03 12:00:47;;;;;;;1.83;0.80;;;;;;;;;;5055394;28;20052;-83
2023/04/03 12:03:26;;;;;;;1.92;1.10;;;;;;;;;;5055236;28;20049;-82
2023/04/03 12:05:57;;;;;;;1.25;0.80;;;;;;;;;;5055310;28;20049;-83
2023/04/03 12:08:27;;;;;;;3.05;1.75;;;;;;;;;;5037605;28;20429;-82
2023/04/03 12:11:09;;;;;;;3.15;0.80;;;;;;;;;;5037727;28;20045;-81
2023/04/03 12:13:42;;;;;;;3.08;0.77;;;;;;;;;;5058983;28;20132;-85
2023/04/03 12:16:21;;;;;;;5.22;1.10;;;;;;;;;;5039628;28;20057;-85
2023/04/03 12:19:05;;;;;;;3.08;0.80;;;;;;;;;;5039430;28;20045;-83
2023/04/03 12:21:56;;;;;;;5.85;1.00;;;;;;;;;;5040754;28;20052;-82
2023/04/03 12:24:26;;;;;;;2.38;0.90;;;;;;;;;;5058352;28;20057;-84
2023/04/03 12:27:12;;;;;;;1.10;0.75;;;;;;;;;;5058197;28;20045;-83
2023/04/03 12:29:44;;;;;;;1.35;0.80;;;;;;;;;;5042244;28;20045;-85
2023/04/03 12:32:25;;;;;;;1.52;1.15;;;;;;;;;;5042524;28;20500;-83
2023/04/03 12:35:09;;;;;;;3.53;1.30;;;;;;;;;;5042102;28;20083;-83
2023/04/03 12:37:49;;;;;;;2.80;1.13;;;;;;;;;;5059077;28;20053;-85
2023/04/03 12:40:27;;;;;;;3.47;1.08;;;;;;;;;;5041364;28;20118;-84
2023/04/03 12:43:14;;;;;;;1.25;0.70;;;;;;;;;;5040287;28;20049;-84
2023/04/03 12:45:44;;;;;;;2.15;0.95;;;;;;;;;;5057467;28;20050;-85
2023/04/03 12:48:16;;;;;;;1.35;0.85;;;;;;;;;;5057791;28;20051;-85
2023/04/03 12:50:45;;;;;;;1.83;0.80;;;;;;;;;;5040422;28;20045;-83
2023/04/03 12:53:14;;;;;;;3.90;0.80;;;;;;;;;;5039515;28;20058;-83
2023/04/03 12:55:41;;;;;;;2.97;0.90;;;;;;;;;;5057498;28;20056;-84
2023/04/03 12:58:22;;;;;;;1.67;1.00;;;;;;;;;;5039032;28;20084;-84
2023/04/03 13:00:59;;;;;;;2.97;1.10;;;;;;;;;;5039059;28;20565;-84
2023/04/03 13:03:27;;;;;;;2.03;0.93;;;;;;;;;;5056468;28;20045;-83
2023/04/03 13:06:00;;;;;;;2.47;1.30;;;;;;;;;;5056573;28;20041;-84
2023/04/03 13:08:27;;;;;;;2.40;1.17;;;;;;;;;;5038065;28;20502;-84
2023/04/03 13:11:01;;;;;;;1.42;1.00;;;;;;;;;;5038244;28;20503;-83
2023/04/03 13:13:28;;;;;;;1.08;0.77;;;;;;;;;;5037914;28;20099;-83
2023/04/03 13:15:56;;;;;;;3.80;1.00;;;;;;;;;;5036428;28;20051;-83
2023/04/03 13:18:27;;;;;;;1.60;1.10;;;;;;;;;;5053819;28;20045;-82
2023/04/03 13:20:57;;;;;;;3.15;1.05;;;;;;;;;;5035935;28;20055;-84
2023/04/03 13:23:25;;;;;;;3.00;0.93;;;;;;;;;;5036296;28;20049;-85
2023/04/03 13:25:52;;;;;;;3.10;1.50;;;;;;;;;;5035962;28;20052;-82
2023/04/03 13:28:22;;;;;;;3.63;2.45;;;;;;;;;;5036335;28;20048;-84
2023/04/03 13:30:57;;;;;;;3.63;0.82;;;;;;;;;;5036095;28;20051;-82
2023/04/03 13:33:26;;;;;;;2.40;1.25;;;;;;;;;;5036647;28;20041;-83
2023/04/03 13:36:08;;;;;;;4.68;1.10;;;;;;;;;;5054003;28;20103;-82
2023/04/03 13:38:36;;;;;;;9.63;1.35;;;;;;;;;;5036316;28;20128;-84
2023/04/03 13:41:06;;;;;;;5.53;1.40;;;;;;;;;;5035961;28;20049;-83
2023/04/03 13:43:36;;;;;;;9.45;4.20;;;;;;;;;;5036392;28;20049;-84
2023/04/03 13:46:22;;;;;;;4.25;1.85;;;;;;;;;;5036011;28;20567;-85
2023/04/03 13:48:51;;;;;;;3.92;2.53;;;;;;;;;;5038738;28;20555;-86
2023/04/03 13:51:23;;;;;;;10.48;2.53;;;;;;;;;;5044143;28;20111;-84
2023/04/03 13:53:53;;;;;;;5.65;1.92;;;;;;;;;;5041252;28;20056;-84
2023/04/03 13:56:27;;;;;;;3.20;0.85;;;;;;;;;;5040497;28;20087;-84
2023/04/03 13:59:13;;;;;;;3.17;1.40;;;;;;;;;;5040575;28;20047;-84
2023/04/03 14:01:42;;;;;;;1.63;0.93;;;;;;;;;;5058569;28;20051;-84
2023/04/03 14:04:17;;;;;;;1.05;0.80;;;;;;;;;;5041872;28;20059;-83
2023/04/03 14:06:44;;;;;;;3.17;0.98;;;;;;;;;;5041137;28;20419;-84
2023/04/03 14:09:12;;;;;;;3.28;1.30;;;;;;;;;;5071130;23;20583;-91
2023/04/03 14:11:40;;;;;;;1.85;0.98;;;;;;;;;;5074394;28;20056;-92
2023/04/03 14:14:13;;;;;;;2.78;1.00;;;;;;;;;;5058122;28;20059;-92
2023/04/03 14:16:41;;;;;;;23.52;12.52;;;;;;;;;;5076656;28;20054;-92
2023/04/03 14:19:15;;;;;;;2.88;1.30;;;;;;;;;;5074457;28;20135;-92
2023/04/03 14:21:42;;;;;;;10.30;1.17;;;;;;;;;;5056039;28;20048;-90
2023/04/03 14:24:11;;;;;;;3.50;0.90;;;;;;;;;;5073951;28;20040;-90
2023/04/03 14:26:38;;;;;;;5.32;1.65;;;;;;;;;;5073934;28;20052;-92
2023/04/03 14:29:06;;;;;;;2.55;1.00;;;;;;;;;;5056166;28;20119;-93
2023/04/03 14:31:33;;;;;;;1.80;0.90;;;;;;;;;;5056252;28;20049;-90
2023/04/03 14:34:01;;;;;;;4.30;1.67;;;;;;;;;;5056258;28;20057;-92
2023/04/03 14:36:30;;;;;;;4.60;1.40;;;;;;;;;;5056252;28;20044;-89
2023/04/03 14:38:58;;;;;;;1.63;1.10;;;;;;;;;;5055998;28;20483;-91
2023/04/03 14:41:27;;;;;;;3.45;1.35;;;;;;;;;;5056075;28;20049;-90
2023/04/03 14:43:54;;;;;;;7.20;1.00;;;;;;;;;;5056216;28;20080;-91
2023/04/03 14:46:24;;;;;;;1.27;1.17;;;;;;;;;;5073563;28;20049;-89
2023/04/03 14:48:58;;;;;;;2.38;0.88;;;;;;;;;;5056708;28;20044;-91
2023/04/03 14:51:26;;;;;;;2.25;1.42;;;;;;;;;;5073899;28;20493;-92
2023/04/03 14:53:53;;;;;;;1.75;0.90;;;;;;;;;;5055978;28;20493;-91
2023/04/03 14:56:23;;;;;;;2.85;1.20;;;;;;;;;;5056073;28;20128;-89